Time;durP1;ratioP1;P1;durP2;ratioP2;P2;SDS_P1;SDS_P2;PMS_P1;PMS_P2;Temp;Humidity;BMP_temperature;BMP_pressure;BME280_temperature;BME280_humidity;BME280_pressure;Samples;Min_cycle;Max_cycle;Signal;HPM_P1;HPM_P2
2022/08/09 00:01:37;;;;;;;5.63;2.77;;;;;;;;;;5108067;28;20520;-69
2022/08/09 00:04:06;;;;;;;6.17;2.20;;;;;;;;;;5114673;28;20454;-69
2022/08/09 00:06:35;;;;;;;4.00;2.30;;;;;;;;;;5115679;28;20729;-67
2022/08/09 00:09:02;;;;;;;6.00;2.40;;;;;;;;;;5114762;28;20439;-67
2022/08/09 00:11:31;;;;;;;3.97;2.70;;;;;;;;;;5111584;28;20714;-69
2022/08/09 00:13:58;;;;;;;4.23;1.97;;;;;;;;;;5114384;28;20443;-69
2022/08/09 00:16:26;;;;;;;9.33;2.80;;;;;;;;;;5114898;28;20783;-69
2022/08/09 00:18:53;;;;;;;3.33;2.37;;;;;;;;;;5114776;28;20455;-69
2022/08/09 00:21:20;;;;;;;9.03;2.90;;;;;;;;;;5099324;28;20487;-69
2022/08/09 00:23:47;;;;;;;4.77;2.23;;;;;;;;;;5094241;28;20508;-69
2022/08/09 00:26:14;;;;;;;3.67;2.43;;;;;;;;;;5093993;28;20447;-69
2022/08/09 00:28:41;;;;;;;4.70;2.70;;;;;;;;;;5094526;28;20455;-68
2022/08/09 00:31:08;;;;;;;4.53;2.60;;;;;;;;;;5102711;28;20451;-69
2022/08/09 00:33:36;;;;;;;5.87;3.23;;;;;;;;;;5114632;28;20519;-69
2022/08/09 00:36:04;;;;;;;6.07;3.20;;;;;;;;;;5103594;28;20472;-69
2022/08/09 00:38:32;;;;;;;4.00;2.37;;;;;;;;;;5074960;28;20472;-69
2022/08/09 00:41:02;;;;;;;3.80;2.37;;;;;;;;;;5083149;28;20478;-69
2022/08/09 00:43:30;;;;;;;4.53;2.60;;;;;;;;;;5114135;28;20451;-69
2022/08/09 00:45:57;;;;;;;4.60;2.43;;;;;;;;;;5114521;28;20541;-69
2022/08/09 00:48:24;;;;;;;5.57;2.50;;;;;;;;;;5114969;28;20461;-69
2022/08/09 00:50:52;;;;;;;4.67;2.50;;;;;;;;;;5113808;28;21070;-69
2022/08/09 00:53:22;;;;;;;6.67;2.87;;;;;;;;;;5091341;28;20888;-69
2022/08/09 00:55:49;;;;;;;4.10;2.57;;;;;;;;;;5093443;28;20455;-70
2022/08/09 00:58:16;;;;;;;3.90;2.37;;;;;;;;;;5092712;28;20737;-69
2022/08/09 01:00:43;;;;;;;8.60;2.90;;;;;;;;;;5092536;28;20907;-69
2022/08/09 01:03:14;;;;;;;4.43;2.30;;;;;;;;;;5095354;28;20490;-69
2022/08/09 01:05:44;;;;;;;5.80;2.40;;;;;;;;;;5114771;28;20793;-69
2022/08/09 01:08:15;;;;;;;4.00;2.33;;;;;;;;;;5114521;28;20543;-70
2022/08/09 01:10:48;;;;;;;3.87;2.30;;;;;;;;;;5113686;28;20859;-69
2022/08/09 01:13:19;;;;;;;3.97;2.13;;;;;;;;;;5113977;28;20447;-69
2022/08/09 01:15:47;;;;;;;4.20;2.83;;;;;;;;;;5112266;28;20442;-69
2022/08/09 01:18:17;;;;;;;4.53;2.40;;;;;;;;;;5113800;28;20459;-69
2022/08/09 01:20:47;;;;;;;6.60;2.77;;;;;;;;;;5113964;28;20478;-69
2022/08/09 01:23:26;;;;;;;5.33;2.60;;;;;;;;;;5113697;28;20488;-69
2022/08/09 01:25:57;;;;;;;4.80;2.17;;;;;;;;;;5112292;28;20447;-69
2022/08/09 01:28:25;;;;;;;4.47;3.03;;;;;;;;;;5113458;28;20758;-69
2022/08/09 01:30:53;;;;;;;5.23;3.00;;;;;;;;;;5113680;28;20459;-69
2022/08/09 01:33:22;;;;;;;6.00;2.67;;;;;;;;;;5114024;28;20527;-69
2022/08/09 01:35:51;;;;;;;3.67;2.47;;;;;;;;;;5102674;28;20436;-69
2022/08/09 01:38:19;;;;;;;3.33;2.67;;;;;;;;;;5094684;28;20772;-69
2022/08/09 01:40:50;;;;;;;7.00;3.23;;;;;;;;;;5094236;28;20740;-69
2022/08/09 01:43:18;;;;;;;5.00;2.83;;;;;;;;;;5093574;28;20455;-69
2022/08/09 01:45:46;;;;;;;3.23;2.40;;;;;;;;;;5094736;28;20475;-69
2022/08/09 01:48:14;;;;;;;2.57;2.10;;;;;;;;;;5092826;28;20468;-69
2022/08/09 01:50:42;;;;;;;4.07;2.97;;;;;;;;;;5094514;28;20452;-69
2022/08/09 01:53:10;;;;;;;2.97;1.90;;;;;;;;;;5094833;28;20709;-69
2022/08/09 01:55:38;;;;;;;3.90;2.03;;;;;;;;;;5094645;28;20443;-69
2022/08/09 01:58:05;;;;;;;3.30;2.60;;;;;;;;;;5113354;28;20545;-69
2022/08/09 02:00:35;;;;;;;3.70;2.20;;;;;;;;;;5113873;28;20460;-69
2022/08/09 02:03:05;;;;;;;5.10;2.93;;;;;;;;;;5113538;28;20559;-69
2022/08/09 02:05:34;;;;;;;3.23;2.40;;;;;;;;;;5114340;28;20443;-69
2022/08/09 02:08:06;;;;;;;3.73;2.60;;;;;;;;;;5113213;28;20583;-69
2022/08/09 02:10:35;;;;;;;5.80;1.90;;;;;;;;;;5115038;28;20457;-69
2022/08/09 02:13:05;;;;;;;4.37;2.93;;;;;;;;;;5118149;28;20512;-69
2022/08/09 02:15:33;;;;;;;4.20;2.83;;;;;;;;;;5117678;28;20865;-69
2022/08/09 02:18:00;;;;;;;3.03;2.30;;;;;;;;;;5104409;28;20466;-69
2022/08/09 02:20:31;;;;;;;4.57;2.47;;;;;;;;;;5096332;28;20478;-69
2022/08/09 02:23:03;;;;;;;4.30;2.77;;;;;;;;;;5097393;28;20489;-69
2022/08/09 02:25:32;;;;;;;5.00;2.60;;;;;;;;;;5097875;28;20463;-68
2022/08/09 02:28:01;;;;;;;4.00;2.40;;;;;;;;;;5100661;28;20456;-69
2022/08/09 02:30:29;;;;;;;4.90;2.50;;;;;;;;;;5118029;28;20446;-69
2022/08/09 02:32:57;;;;;;;3.00;2.53;;;;;;;;;;5118287;28;20533;-69
2022/08/09 02:35:25;;;;;;;4.23;2.57;;;;;;;;;;5117463;28;20515;-69
2022/08/09 02:37:56;;;;;;;4.20;2.80;;;;;;;;;;5114806;28;20474;-69
2022/08/09 02:40:24;;;;;;;6.13;3.90;;;;;;;;;;5117337;28;20486;-69
2022/08/09 02:42:53;;;;;;;5.10;3.00;;;;;;;;;;5117270;28;21044;-69
2022/08/09 02:45:23;;;;;;;3.20;2.53;;;;;;;;;;5116624;28;20447;-69
2022/08/09 02:47:52;;;;;;;3.33;2.07;;;;;;;;;;5117185;28;20457;-69
2022/08/09 02:50:22;;;;;;;5.50;2.20;;;;;;;;;;5097830;28;20452;-69
2022/08/09 02:52:51;;;;;;;3.07;2.30;;;;;;;;;;5095762;28;20890;-70
2022/08/09 02:55:19;;;;;;;4.60;2.70;;;;;;;;;;5095546;28;20491;-69
2022/08/09 02:57:47;;;;;;;4.10;3.03;;;;;;;;;;5095431;28;20507;-69
2022/08/09 03:00:15;;;;;;;4.50;2.47;;;;;;;;;;5107568;28;20471;-69
2022/08/09 03:02:44;;;;;;;9.33;3.53;;;;;;;;;;5115214;28;20917;-70
2022/08/09 03:05:12;;;;;;;5.60;3.33;;;;;;;;;;5115095;28;20442;-70
2022/08/09 03:07:39;;;;;;;7.50;2.97;;;;;;;;;;5115610;28;20455;-69
2022/08/09 03:10:07;;;;;;;8.90;2.73;;;;;;;;;;5109877;28;20447;-70
2022/08/09 03:12:36;;;;;;;3.83;2.87;;;;;;;;;;5095173;28;20462;-69
2022/08/09 03:15:03;;;;;;;4.10;2.57;;;;;;;;;;5095039;28;20523;-70
2022/08/09 03:17:30;;;;;;;4.17;2.77;;;;;;;;;;5095709;28;20868;-69
2022/08/09 03:19:59;;;;;;;4.30;2.60;;;;;;;;;;5094727;28;20898;-70
2022/08/09 03:22:28;;;;;;;6.27;2.80;;;;;;;;;;5095381;28;20484;-71
2022/08/09 03:24:56;;;;;;;4.40;2.50;;;;;;;;;;5094225;28;20443;-69
2022/08/09 03:27:23;;;;;;;5.23;2.67;;;;;;;;;;5095150;28;20460;-70
2022/08/09 03:29:51;;;;;;;3.37;2.63;;;;;;;;;;5095203;28;20444;-70
2022/08/09 03:32:18;;;;;;;4.13;2.20;;;;;;;;;;5111155;28;20859;-70
2022/08/09 03:34:46;;;;;;;5.63;2.73;;;;;;;;;;5115226;28;20462;-70
2022/08/09 03:37:13;;;;;;;7.07;2.57;;;;;;;;;;5115413;28;20450;-70
2022/08/09 03:39:40;;;;;;;3.40;2.07;;;;;;;;;;5115299;28;20457;-69
2022/08/09 03:42:07;;;;;;;4.07;2.20;;;;;;;;;;5103624;28;20475;-69
2022/08/09 03:44:34;;;;;;;3.43;2.33;;;;;;;;;;5094486;28;20447;-70
2022/08/09 03:47:02;;;;;;;5.17;2.80;;;;;;;;;;5096410;28;20455;-69
2022/08/09 03:49:29;;;;;;;3.10;2.40;;;;;;;;;;5095689;28;20463;-70
2022/08/09 03:51:58;;;;;;;6.83;2.20;;;;;;;;;;5090218;28;20506;-70
2022/08/09 03:54:26;;;;;;;5.87;2.87;;;;;;;;;;5074999;28;20776;-70
2022/08/09 03:56:53;;;;;;;4.37;2.97;;;;;;;;;;5075940;28;20464;-69
2022/08/09 03:59:20;;;;;;;4.60;3.03;;;;;;;;;;5074166;28;20490;-69
2022/08/09 04:01:48;;;;;;;5.73;2.53;;;;;;;;;;5074990;28;20484;-70
2022/08/09 04:04:16;;;;;;;4.83;3.20;;;;;;;;;;5113614;28;20442;-70
2022/08/09 04:06:43;;;;;;;4.70;2.73;;;;;;;;;;5114279;28;20526;-69
2022/08/09 04:09:12;;;;;;;5.50;4.07;;;;;;;;;;5111244;28;20840;-69
2022/08/09 04:11:47;;;;;;;6.60;3.40;;;;;;;;;;5076574;28;20864;-70
2022/08/09 04:14:14;;;;;;;4.77;2.17;;;;;;;;;;5092170;28;20459;-70
2022/08/09 04:16:41;;;;;;;3.97;2.63;;;;;;;;;;5093605;28;20457;-70
2022/08/09 04:19:08;;;;;;;3.83;2.50;;;;;;;;;;5093465;28;20638;-69
2022/08/09 04:21:40;;;;;;;5.43;3.37;;;;;;;;;;5093260;28;20494;-70
2022/08/09 04:24:08;;;;;;;3.20;2.37;;;;;;;;;;5093979;28;20456;-70
2022/08/09 04:26:35;;;;;;;4.77;2.70;;;;;;;;;;5094440;28;20451;-70
2022/08/09 04:29:02;;;;;;;4.90;2.60;;;;;;;;;;5093706;28;20440;-69
2022/08/09 04:31:30;;;;;;;7.73;2.87;;;;;;;;;;5093668;28;20523;-70
2022/08/09 04:33:57;;;;;;;3.50;2.17;;;;;;;;;;5095554;28;20466;-70
2022/08/09 04:36:26;;;;;;;3.77;2.20;;;;;;;;;;5092286;28;20463;-71
2022/08/09 04:38:54;;;;;;;4.10;2.60;;;;;;;;;;5093561;28;20448;-69
2022/08/09 04:41:22;;;;;;;4.07;2.77;;;;;;;;;;5093476;28;20480;-70
2022/08/09 04:43:49;;;;;;;24.87;4.10;;;;;;;;;;5093344;28;20458;-70
2022/08/09 04:46:16;;;;;;;6.77;3.00;;;;;;;;;;5113787;28;20455;-70
2022/08/09 04:48:43;;;;;;;4.10;2.50;;;;;;;;;;5114020;28;20443;-70
2022/08/09 04:51:11;;;;;;;4.93;3.07;;;;;;;;;;5113802;28;20491;-70
2022/08/09 04:53:38;;;;;;;3.90;2.90;;;;;;;;;;5113083;28;20451;-70
2022/08/09 04:56:07;;;;;;;4.63;2.57;;;;;;;;;;5110786;28;20915;-70
2022/08/09 04:58:35;;;;;;;5.40;2.80;;;;;;;;;;5112199;28;20819;-70
2022/08/09 05:01:02;;;;;;;3.70;2.87;;;;;;;;;;5103477;28;20599;-70
2022/08/09 05:03:32;;;;;;;9.00;4.43;;;;;;;;;;5092399;28;20444;-70
2022/08/09 05:05:59;;;;;;;4.80;2.70;;;;;;;;;;5101218;28;20443;-70
2022/08/09 05:08:26;;;;;;;3.30;2.50;;;;;;;;;;5113516;28;20446;-69
2022/08/09 05:10:53;;;;;;;4.00;2.57;;;;;;;;;;5114652;28;20447;-69
2022/08/09 05:13:21;;;;;;;4.43;2.93;;;;;;;;;;5111305;28;20447;-70
2022/08/09 05:15:48;;;;;;;6.50;2.90;;;;;;;;;;5110507;28;20844;-69
2022/08/09 05:18:15;;;;;;;5.73;2.90;;;;;;;;;;5112760;28;20705;-69
2022/08/09 05:20:46;;;;;;;5.80;2.80;;;;;;;;;;5113008;28;20477;-69
2022/08/09 05:23:13;;;;;;;7.23;3.20;;;;;;;;;;5112524;28;20458;-69
2022/08/09 05:25:49;;;;;;;4.30;2.20;;;;;;;;;;5113583;28;20457;-69
2022/08/09 05:28:16;;;;;;;5.50;3.97;;;;;;;;;;5110905;28;20941;-69
2022/08/09 05:30:48;;;;;;;10.30;2.90;;;;;;;;;;5112361;28;20558;-69
2022/08/09 05:33:15;;;;;;;4.07;2.00;;;;;;;;;;5112526;28;20731;-69
2022/08/09 05:35:44;;;;;;;5.13;3.23;;;;;;;;;;5113223;28;21009;-69
2022/08/09 05:38:11;;;;;;;6.37;2.80;;;;;;;;;;5112682;28;20450;-69
2022/08/09 05:40:40;;;;;;;6.17;2.90;;;;;;;;;;5106662;28;20456;-70
2022/08/09 05:43:07;;;;;;;3.90;2.73;;;;;;;;;;5092591;28;20865;-69
2022/08/09 05:45:34;;;;;;;3.90;2.27;;;;;;;;;;5093253;28;20455;-70
2022/08/09 05:48:03;;;;;;;4.30;1.90;;;;;;;;;;5100469;28;20447;-70
2022/08/09 05:50:34;;;;;;;7.40;2.90;;;;;;;;;;5108038;28;20839;-69
2022/08/09 05:53:01;;;;;;;3.93;2.40;;;;;;;;;;5115359;28;20455;-69
2022/08/09 05:55:29;;;;;;;4.07;1.70;;;;;;;;;;5115017;28;20716;-69
2022/08/09 05:57:57;;;;;;;4.47;2.40;;;;;;;;;;5113199;28;20443;-70
2022/08/09 06:00:30;;;;;;;5.53;3.50;;;;;;;;;;5115569;28;20466;-70
2022/08/09 06:02:58;;;;;;;7.47;2.27;;;;;;;;;;5086441;28;20908;-70
2022/08/09 06:05:30;;;;;;;5.50;2.30;;;;;;;;;;5075214;28;20468;-70
2022/08/09 06:07:57;;;;;;;5.13;2.10;;;;;;;;;;5094202;28;20439;-70
2022/08/09 06:10:37;;;;;;;4.93;2.30;;;;;;;;;;5096909;28;20443;-70
2022/08/09 06:13:04;;;;;;;3.27;2.07;;;;;;;;;;5095512;28;20455;-70
2022/08/09 06:15:31;;;;;;;4.53;2.73;;;;;;;;;;5095039;28;20455;-70
2022/08/09 06:17:58;;;;;;;4.63;2.90;;;;;;;;;;5106170;28;20455;-70
2022/08/09 06:20:26;;;;;;;4.10;3.03;;;;;;;;;;5096627;28;20464;-71
2022/08/09 06:22:53;;;;;;;4.73;1.97;;;;;;;;;;5074833;28;21181;-71
2022/08/09 06:25:21;;;;;;;3.30;2.10;;;;;;;;;;5076051;28;20456;-71
2022/08/09 06:27:48;;;;;;;12.47;3.03;;;;;;;;;;5074902;28;20533;-70
2022/08/09 06:30:15;;;;;;;8.03;3.33;;;;;;;;;;5092435;28;20451;-70
2022/08/09 06:32:42;;;;;;;5.87;2.70;;;;;;;;;;5113146;28;20744;-70
2022/08/09 06:35:18;;;;;;;7.07;2.33;;;;;;;;;;5095526;28;20516;-71
2022/08/09 06:37:46;;;;;;;4.13;2.23;;;;;;;;;;5098587;28;20558;-68
2022/08/09 06:40:13;;;;;;;7.03;2.60;;;;;;;;;;5100553;28;20466;-70
2022/08/09 06:42:41;;;;;;;5.70;2.07;;;;;;;;;;5101723;28;20486;-71
2022/08/09 06:45:09;;;;;;;12.17;3.10;;;;;;;;;;5095618;28;20505;-71
2022/08/09 06:47:37;;;;;;;10.40;3.97;;;;;;;;;;5094211;28;20856;-70
2022/08/09 06:50:05;;;;;;;5.10;3.03;;;;;;;;;;5095092;28;20526;-71
2022/08/09 06:52:34;;;;;;;7.63;2.80;;;;;;;;;;5112643;28;20531;-70
2022/08/09 06:55:02;;;;;;;6.00;2.53;;;;;;;;;;5115943;28;20442;-70
2022/08/09 06:57:29;;;;;;;4.10;2.53;;;;;;;;;;5111858;28;20986;-70
2022/08/09 06:59:57;;;;;;;5.10;2.30;;;;;;;;;;5106205;28;20447;-70
2022/08/09 07:02:27;;;;;;;7.30;2.20;;;;;;;;;;5087035;28;20482;-69
2022/08/09 07:04:54;;;;;;;3.93;2.37;;;;;;;;;;5077785;28;20607;-69
2022/08/09 07:07:22;;;;;;;9.30;2.80;;;;;;;;;;5097116;28;21095;-70
2022/08/09 07:09:52;;;;;;;4.60;2.27;;;;;;;;;;5093279;28;20936;-70
2022/08/09 07:12:20;;;;;;;3.03;1.80;;;;;;;;;;5093771;28;20448;-70
2022/08/09 07:14:48;;;;;;;6.40;3.50;;;;;;;;;;5085999;28;20467;-70
2022/08/09 07:17:15;;;;;;;3.57;2.50;;;;;;;;;;5074186;28;20449;-70
2022/08/09 07:19:42;;;;;;;5.80;2.10;;;;;;;;;;5078212;28;20471;-70
2022/08/09 07:22:10;;;;;;;3.20;1.33;;;;;;;;;;5091984;28;20506;-71
2022/08/09 07:24:37;;;;;;;3.90;1.90;;;;;;;;;;5092684;28;20524;-71
2022/08/09 07:27:04;;;;;;;3.90;1.80;;;;;;;;;;5091846;28;20951;-71
2022/08/09 07:29:32;;;;;;;6.17;2.77;;;;;;;;;;5094563;28;20451;-70
2022/08/09 07:32:02;;;;;;;7.07;2.07;;;;;;;;;;5093633;28;20460;-72
2022/08/09 07:34:30;;;;;;;6.97;2.10;;;;;;;;;;5095451;28;20875;-68
2022/08/09 07:36:57;;;;;;;6.87;1.90;;;;;;;;;;5096874;28;20884;-70
2022/08/09 07:39:24;;;;;;;3.40;2.37;;;;;;;;;;5114886;28;20881;-70
2022/08/09 07:41:51;;;;;;;4.00;1.77;;;;;;;;;;5094025;28;20471;-70
2022/08/09 07:44:18;;;;;;;6.10;3.90;;;;;;;;;;5074496;28;20544;-70
2022/08/09 07:46:47;;;;;;;6.33;2.17;;;;;;;;;;5073989;28;20529;-70
2022/08/09 07:49:14;;;;;;;3.40;1.80;;;;;;;;;;5093926;28;20463;-70
2022/08/09 07:51:43;;;;;;;4.13;1.80;;;;;;;;;;5092663;28;20447;-70
2022/08/09 07:54:13;;;;;;;8.00;2.73;;;;;;;;;;5074206;28;20472;-69
2022/08/09 07:56:40;;;;;;;3.30;1.97;;;;;;;;;;5073753;28;20460;-71
2022/08/09 07:59:08;;;;;;;4.57;1.83;;;;;;;;;;5086914;28;20456;-71
2022/08/09 08:01:35;;;;;;;3.60;2.30;;;;;;;;;;5088809;28;20763;-70
2022/08/09 08:04:12;;;;;;;9.40;2.63;;;;;;;;;;5093284;28;20452;-70
2022/08/09 08:06:39;;;;;;;5.60;1.67;;;;;;;;;;5086227;28;20454;-70
2022/08/09 08:09:06;;;;;;;5.47;2.10;;;;;;;;;;5093397;28;20458;-70
2022/08/09 08:11:34;;;;;;;6.20;3.10;;;;;;;;;;5093386;28;20470;-70
2022/08/09 08:14:26;;;;;;;8.23;2.67;;;;;;;;;;5091123;28;20460;-71
2022/08/09 08:16:59;;;;;;;4.00;1.50;;;;;;;;;;5088878;28;20463;-70
2022/08/09 08:19:42;;;;;;;4.03;2.47;;;;;;;;;;5089962;28;20788;-71
2022/08/09 08:22:16;;;;;;;3.50;1.40;;;;;;;;;;5073323;28;20488;-69
2022/08/09 08:24:46;;;;;;;4.83;1.60;;;;;;;;;;5073025;28;20455;-70
2022/08/09 08:27:14;;;;;;;7.43;1.90;;;;;;;;;;5072693;28;20918;-70
2022/08/09 08:29:43;;;;;;;7.43;1.70;;;;;;;;;;5093007;28;20443;-70
2022/08/09 08:32:10;;;;;;;3.47;1.50;;;;;;;;;;5111061;28;20455;-70
2022/08/09 08:34:38;;;;;;;6.53;2.20;;;;;;;;;;5086978;28;20487;-70
2022/08/09 08:37:08;;;;;;;5.90;1.57;;;;;;;;;;5080896;28;20486;-69
2022/08/09 08:39:35;;;;;;;4.93;1.40;;;;;;;;;;5075473;28;20719;-69
2022/08/09 08:42:04;;;;;;;2.60;1.50;;;;;;;;;;5076238;28;20491;-71
2022/08/09 08:44:38;;;;;;;4.40;1.60;;;;;;;;;;5072940;28;20783;-71
2022/08/09 08:47:05;;;;;;;2.97;1.37;;;;;;;;;;5074139;28;20464;-71
2022/08/09 08:49:37;;;;;;;5.20;1.30;;;;;;;;;;5102831;28;20723;-71
2022/08/09 08:52:09;;;;;;;6.87;1.97;;;;;;;;;;5096086;28;20528;-70
2022/08/09 08:54:41;;;;;;;4.37;1.63;;;;;;;;;;5095490;28;20460;-70
2022/08/09 08:57:13;;;;;;;5.80;1.73;;;;;;;;;;5094619;28;20463;-69
2022/08/09 08:59:47;;;;;;;8.93;2.30;;;;;;;;;;5086838;28;20464;-70
2022/08/09 09:02:22;;;;;;;4.93;1.50;;;;;;;;;;5104712;28;20714;-70
2022/08/09 09:04:55;;;;;;;4.90;1.30;;;;;;;;;;5074607;28;20462;-70
2022/08/09 09:07:29;;;;;;;5.10;1.83;;;;;;;;;;5073486;28;20589;-70
2022/08/09 09:09:57;;;;;;;10.10;1.33;;;;;;;;;;5072345;28;20513;-70
2022/08/09 09:12:34;;;;;;;4.40;1.50;;;;;;;;;;5072793;28;20495;-71
2022/08/09 09:15:03;;;;;;;4.97;1.50;;;;;;;;;;5072457;28;20505;-70
2022/08/09 09:17:41;;;;;;;6.67;1.73;;;;;;;;;;5082195;28;20464;-70
2022/08/09 09:20:18;;;;;;;3.10;1.90;;;;;;;;;;5092339;28;20459;-70
2022/08/09 09:23:02;;;;;;;3.63;2.10;;;;;;;;;;5078580;28;20488;-70
2022/08/09 09:25:38;;;;;;;5.47;1.77;;;;;;;;;;5084279;28;20452;-70
2022/08/09 09:28:20;;;;;;;8.23;1.63;;;;;;;;;;5092372;28;20520;-70
2022/08/09 09:30:54;;;;;;;3.40;1.37;;;;;;;;;;5092085;28;20899;-71
2022/08/09 09:33:34;;;;;;;5.80;1.40;;;;;;;;;;5080954;28;20563;-70
2022/08/09 09:36:04;;;;;;;17.40;2.70;;;;;;;;;;5087126;28;20464;-70
2022/08/09 09:38:55;;;;;;;4.50;1.20;;;;;;;;;;5082908;28;20449;-70
2022/08/09 09:41:31;;;;;;;3.13;1.50;;;;;;;;;;5077372;28;20476;-70
2022/08/09 09:44:03;;;;;;;2.73;1.80;;;;;;;;;;5086434;28;20467;-70
2022/08/09 09:46:32;;;;;;;12.77;3.20;;;;;;;;;;5089405;28;21541;-70
2022/08/09 09:49:03;;;;;;;3.90;1.50;;;;;;;;;;5092184;28;20902;-70
2022/08/09 09:51:31;;;;;;;6.13;1.97;;;;;;;;;;5089942;28;20472;-69
2022/08/09 09:54:14;;;;;;;3.37;1.73;;;;;;;;;;5090493;28;20451;-70
2022/08/09 09:56:43;;;;;;;5.90;1.50;;;;;;;;;;5081662;28;20466;-70
2022/08/09 09:59:17;;;;;;;3.27;1.53;;;;;;;;;;5085956;28;20460;-70
2022/08/09 10:02:01;;;;;;;7.43;1.57;;;;;;;;;;5083372;28;20515;-70
2022/08/09 10:04:31;;;;;;;3.13;1.27;;;;;;;;;;5069641;28;20451;-71
2022/08/09 10:07:06;;;;;;;4.77;1.90;;;;;;;;;;5083292;28;20855;-70
2022/08/09 10:10:01;;;;;;;2.33;1.20;;;;;;;;;;5092076;28;20463;-70
2022/08/09 10:12:32;;;;;;;2.93;1.13;;;;;;;;;;5081247;28;20463;-71
2022/08/09 10:15:10;;;;;;;3.27;1.53;;;;;;;;;;5097646;28;20861;-70
2022/08/09 10:17:42;;;;;;;2.13;1.30;;;;;;;;;;5092418;28;20554;-70
2022/08/09 10:20:26;;;;;;;5.90;1.20;;;;;;;;;;5082899;28;20452;-71
2022/08/09 10:22:54;;;;;;;2.23;1.33;;;;;;;;;;5085552;28;20861;-71
2022/08/09 10:25:23;;;;;;;2.20;1.00;;;;;;;;;;5077287;28;20440;-71
2022/08/09 10:27:50;;;;;;;4.63;1.40;;;;;;;;;;5076727;28;21064;-71
2022/08/09 10:30:30;;;;;;;5.10;1.20;;;;;;;;;;5082072;28;20471;-71
2022/08/09 10:33:17;;;;;;;3.80;1.40;;;;;;;;;;5087375;28;20738;-70
2022/08/09 10:35:45;;;;;;;2.33;1.17;;;;;;;;;;5091119;28;20444;-70
2022/08/09 10:38:13;;;;;;;2.80;1.60;;;;;;;;;;5075476;28;20882;-71
2022/08/09 10:40:43;;;;;;;3.93;1.00;;;;;;;;;;5085922;28;20459;-71
2022/08/09 10:43:12;;;;;;;4.17;1.77;;;;;;;;;;5087727;28;20479;-71
2022/08/09 10:45:41;;;;;;;8.67;4.10;;;;;;;;;;5081153;28;20539;-71
2022/08/09 10:48:12;;;;;;;4.47;1.40;;;;;;;;;;5081915;28;20559;-71
2022/08/09 10:53:38;;;;;;;5.27;1.13;;;;;;;;;;5092802;28;20601;-70
2022/08/09 10:56:24;;;;;;;2.37;1.20;;;;;;;;;;5089928;28;20517;-70
2022/08/09 10:58:51;;;;;;;2.67;1.00;;;;;;;;;;5087617;28;20498;-69
2022/08/09 11:01:39;;;;;;;4.00;1.00;;;;;;;;;;5085089;28;20460;-69
2022/08/09 11:04:12;;;;;;;2.33;1.10;;;;;;;;;;5087242;28;20913;-71
2022/08/09 11:06:43;;;;;;;4.00;0.93;;;;;;;;;;5091649;28;20494;-71
2022/08/09 11:09:22;;;;;;;2.27;1.27;;;;;;;;;;5078097;28;20456;-70
2022/08/09 11:12:10;;;;;;;3.77;1.47;;;;;;;;;;5076384;28;20492;-70
2022/08/09 11:14:40;;;;;;;9.00;1.20;;;;;;;;;;5077225;28;20485;-70
2022/08/09 11:17:23;;;;;;;3.30;1.17;;;;;;;;;;5093590;28;20459;-70
2022/08/09 11:19:56;;;;;;;2.00;1.00;;;;;;;;;;5073556;28;20453;-69
2022/08/09 11:22:44;;;;;;;2.57;1.43;;;;;;;;;;5075736;28;21123;-70
2022/08/09 11:25:11;;;;;;;5.50;1.60;;;;;;;;;;5084979;28;20463;-70
2022/08/09 11:27:40;;;;;;;2.00;0.80;;;;;;;;;;5093268;28;20521;-70
2022/08/09 11:30:10;;;;;;;2.73;1.10;;;;;;;;;;5076231;28;20468;-70
2022/08/09 11:32:53;;;;;;;3.20;1.13;;;;;;;;;;5077036;28;20452;-71
2022/08/09 11:35:28;;;;;;;4.20;2.07;;;;;;;;;;5090114;28;20486;-70
2022/08/09 11:37:57;;;;;;;2.27;0.90;;;;;;;;;;5091903;28;20471;-71
2022/08/09 11:40:28;;;;;;;2.20;1.40;;;;;;;;;;5093423;28;20439;-71
2022/08/09 11:42:57;;;;;;;3.70;1.60;;;;;;;;;;5085018;28;20568;-71
2022/08/09 11:45:29;;;;;;;3.80;1.50;;;;;;;;;;5106389;28;20451;-71
2022/08/09 11:48:00;;;;;;;6.80;2.17;;;;;;;;;;5090266;28;20456;-71
2022/08/09 11:50:28;;;;;;;9.23;1.03;;;;;;;;;;5079126;28;20453;-71
2022/08/09 11:53:13;;;;;;;2.27;0.87;;;;;;;;;;5082861;28;20464;-70
2022/08/09 11:55:43;;;;;;;1.90;1.00;;;;;;;;;;5096774;28;20835;-70
2022/08/09 11:58:29;;;;;;;9.47;1.63;;;;;;;;;;5091904;28;20448;-70
2022/08/09 12:01:02;;;;;;;2.57;1.43;;;;;;;;;;5067402;28;20479;-70
2022/08/09 12:03:31;;;;;;;2.27;1.20;;;;;;;;;;5078965;28;20479;-69
2022/08/09 12:05:59;;;;;;;3.10;1.20;;;;;;;;;;5080091;28;20436;-70
2022/08/09 12:08:27;;;;;;;2.50;1.10;;;;;;;;;;5077494;28;20469;-70
2022/08/09 12:10:55;;;;;;;2.00;1.13;;;;;;;;;;5082441;28;20793;-70
2022/08/09 12:13:29;;;;;;;7.30;1.90;;;;;;;;;;5074378;28;20556;-70
2022/08/09 12:16:01;;;;;;;3.60;1.60;;;;;;;;;;5086105;28;20443;-70
2022/08/09 12:18:28;;;;;;;6.37;1.40;;;;;;;;;;5074871;28;20476;-70
2022/08/09 12:20:57;;;;;;;15.80;10.70;;;;;;;;;;5089787;28;20748;-70
2022/08/09 12:23:34;;;;;;;5.70;1.80;;;;;;;;;;5093835;28;20491;-71
2022/08/09 12:26:02;;;;;;;3.23;1.57;;;;;;;;;;5100711;28;20444;-71
2022/08/09 12:28:31;;;;;;;5.63;2.60;;;;;;;;;;5077202;28;20452;-71
2022/08/09 12:31:06;;;;;;;4.07;1.57;;;;;;;;;;5076388;28;20464;-71
2022/08/09 12:33:35;;;;;;;2.90;0.80;;;;;;;;;;5064952;28;20456;-71
2022/08/09 12:36:07;;;;;;;2.60;0.83;;;;;;;;;;5072983;28;20830;-71
2022/08/09 12:38:34;;;;;;;3.67;1.60;;;;;;;;;;5083771;28;20439;-71
2022/08/09 12:41:01;;;;;;;4.87;1.13;;;;;;;;;;5076937;28;20456;-71
2022/08/09 12:43:29;;;;;;;2.53;1.23;;;;;;;;;;5093993;28;20483;-70
2022/08/09 12:45:58;;;;;;;3.07;1.07;;;;;;;;;;5104142;28;20497;-70
2022/08/09 12:48:28;;;;;;;2.53;1.20;;;;;;;;;;5103509;28;20460;-70
2022/08/09 12:50:58;;;;;;;6.40;4.40;;;;;;;;;;5112137;28;20555;-71
2022/08/09 12:53:27;;;;;;;2.67;1.20;;;;;;;;;;5110505;28;20450;-70
2022/08/09 12:56:06;;;;;;;7.53;1.20;;;;;;;;;;5091615;28;20471;-71
2022/08/09 12:58:45;;;;;;;2.70;1.03;;;;;;;;;;5071657;28;20535;-71
2022/08/09 13:01:23;;;;;;;2.40;0.87;;;;;;;;;;5089029;28;20489;-71
2022/08/09 13:03:59;;;;;;;2.73;0.93;;;;;;;;;;5098587;28;20930;-71
2022/08/09 13:06:31;;;;;;;3.53;1.47;;;;;;;;;;5081251;28;20567;-71
2022/08/09 13:09:01;;;;;;;6.50;0.90;;;;;;;;;;5094365;28;20607;-71
2022/08/09 13:11:33;;;;;;;2.30;1.00;;;;;;;;;;5106878;28;20459;-72
2022/08/09 13:14:01;;;;;;;2.77;1.00;;;;;;;;;;5111299;28;20458;-72
2022/08/09 13:16:40;;;;;;;3.00;1.83;;;;;;;;;;5094545;28;20460;-72
2022/08/09 13:19:08;;;;;;;2.63;0.83;;;;;;;;;;5069913;28;20516;-73
2022/08/09 13:21:37;;;;;;;1.80;1.00;;;;;;;;;;5078373;28;20487;-73
2022/08/09 13:24:19;;;;;;;4.07;1.47;;;;;;;;;;5112665;28;20710;-72
2022/08/09 13:26:49;;;;;;;3.83;2.33;;;;;;;;;;5084395;28;20459;-72
2022/08/09 13:29:23;;;;;;;5.53;2.40;;;;;;;;;;5091657;28;20841;-72
2022/08/09 13:31:57;;;;;;;3.70;1.10;;;;;;;;;;5098456;28;20463;-71
2022/08/09 13:34:29;;;;;;;4.17;1.53;;;;;;;;;;5070299;28;20474;-72
2022/08/09 13:37:08;;;;;;;2.03;0.80;;;;;;;;;;5094596;28;20487;-72
2022/08/09 13:39:38;;;;;;;4.20;1.00;;;;;;;;;;5089022;28;20512;-74
2022/08/09 13:42:07;;;;;;;3.20;1.03;;;;;;;;;;5071460;28;20484;-72
2022/08/09 13:44:45;;;;;;;3.47;1.00;;;;;;;;;;5097393;28;20438;-73
2022/08/09 13:47:16;;;;;;;2.50;0.80;;;;;;;;;;5110805;28;20450;-72
2022/08/09 13:49:44;;;;;;;2.50;0.90;;;;;;;;;;5110711;28;20482;-72
2022/08/09 13:52:14;;;;;;;1.80;0.90;;;;;;;;;;5104780;28;20452;-72
2022/08/09 13:54:46;;;;;;;4.00;1.20;;;;;;;;;;5104137;28;20920;-71
2022/08/09 13:57:14;;;;;;;2.80;1.10;;;;;;;;;;5102445;28;20816;-70
2022/08/09 13:59:41;;;;;;;5.63;1.37;;;;;;;;;;5098438;28;20461;-70
2022/08/09 14:02:10;;;;;;;3.23;1.10;;;;;;;;;;5092889;28;20532;-71
2022/08/09 14:04:40;;;;;;;5.93;1.10;;;;;;;;;;5088961;28;20736;-71
2022/08/09 14:07:27;;;;;;;2.50;0.77;;;;;;;;;;5098492;28;20454;-72
2022/08/09 14:09:54;;;;;;;3.40;1.63;;;;;;;;;;5081398;28;20946;-72
2022/08/09 14:12:21;;;;;;;3.70;1.47;;;;;;;;;;5080812;28;20475;-70
2022/08/09 14:14:49;;;;;;;2.30;1.13;;;;;;;;;;5090236;28;20789;-71
2022/08/09 14:17:16;;;;;;;3.07;1.70;;;;;;;;;;5083334;28;20455;-71
2022/08/09 14:19:44;;;;;;;2.47;0.90;;;;;;;;;;5092872;28;20467;-70
2022/08/09 14:22:12;;;;;;;2.00;1.10;;;;;;;;;;5078403;28;20489;-72
2022/08/09 14:24:42;;;;;;;2.43;0.60;;;;;;;;;;5075120;28;20529;-72
2022/08/09 14:27:16;;;;;;;2.63;1.13;;;;;;;;;;5110630;28;20699;-72
2022/08/09 14:32:29;;;;;;;3.53;1.07;;;;;;;;;;5064361;28;20613;-73
2022/08/09 14:34:56;;;;;;;4.87;1.20;;;;;;;;;;5075426;28;20478;-73
2022/08/09 14:37:25;;;;;;;4.00;1.07;;;;;;;;;;5092832;28;20742;-69
2022/08/09 14:39:52;;;;;;;3.20;0.90;;;;;;;;;;5087721;28;20498;-72
2022/08/09 14:42:20;;;;;;;5.03;3.30;;;;;;;;;;5077357;28;20484;-70
2022/08/09 14:45:00;;;;;;;2.17;1.13;;;;;;;;;;5087455;28;20471;-71
2022/08/09 14:47:36;;;;;;;2.63;1.23;;;;;;;;;;5065823;28;20824;-70
2022/08/09 14:52:57;;;;;;;2.53;1.00;;;;;;;;;;5085244;28;20460;-70
2022/08/09 14:55:25;;;;;;;3.10;1.30;;;;;;;;;;5085946;28;20975;-70
2022/08/09 14:57:52;;;;;;;2.00;1.00;;;;;;;;;;5078003;28;20495;-70
2022/08/09 15:00:19;;;;;;;7.77;2.80;;;;;;;;;;5083827;28;20751;-71
2022/08/09 15:02:46;;;;;;;4.30;1.80;;;;;;;;;;5087986;28;20471;-70
2022/08/09 15:05:17;;;;;;;2.83;1.13;;;;;;;;;;5088113;28;20467;-71
2022/08/09 15:07:45;;;;;;;2.27;1.00;;;;;;;;;;5092546;28;20558;-71
2022/08/09 15:10:18;;;;;;;3.10;1.20;;;;;;;;;;5090090;28;20463;-71